Time;durP1;ratioP1;P1;durP2;ratioP2;P2;SDS_P1;SDS_P2;PMS_P1;PMS_P2;Temp;Humidity;BMP_temperature;BMP_pressure;BME280_temperature;BME280_humidity;BME280_pressure;Samples;Min_cycle;Max_cycle;Signal;HPM_P1;HPM_P2
2023/01/15 00:01:34;;;;;;;;;;;7.80;99.90;;;;;;5077381;28;19959;-83
2023/01/15 00:04:02;;;;;;;;;;;7.70;99.90;;;;;;5077184;28;19908;-83
2023/01/15 00:06:28;;;;;;;;;;;7.70;99.90;;;;;;5076812;28;20534;-82
2023/01/15 00:08:53;;;;;;;;;;;7.60;99.90;;;;;;5077352;28;19958;-82
2023/01/15 00:11:19;;;;;;;;;;;7.50;99.90;;;;;;5076312;28;19934;-82
2023/01/15 00:13:47;;;;;;;;;;;7.40;99.90;;;;;;5076769;28;19919;-82
2023/01/15 00:16:20;;;;;;;;;;;7.30;99.90;;;;;;5094915;28;19994;-83
2023/01/15 00:18:55;;;;;;;;;;;7.30;99.90;;;;;;5094848;28;19908;-83
2023/01/15 00:21:28;;;;;;;;;;;7.20;99.90;;;;;;5076549;28;20336;-83
2023/01/15 00:29:24;;;;;;;;;;;7.00;99.90;;;;;;5094618;28;19915;-83
2023/01/15 00:31:51;;;;;;;;;;;7.00;99.90;;;;;;5075516;28;19908;-84
2023/01/15 00:34:17;;;;;;;;;;;7.00;99.90;;;;;;5075971;28;19908;-85
2023/01/15 00:36:44;;;;;;;;;;;7.00;99.90;;;;;;5094067;28;20370;-84
2023/01/15 00:39:28;;;;;;;;;;;7.00;99.90;;;;;;5092807;28;19908;-85
2023/01/15 00:41:54;;;;;;;;;;;6.90;99.90;;;;;;5075585;28;19908;-84
2023/01/15 00:44:20;;;;;;;;;;;6.90;99.90;;;;;;5075454;28;20259;-84
2023/01/15 00:46:45;;;;;;;;;;;6.90;99.90;;;;;;5092706;28;20412;-84
2023/01/15 00:49:11;;;;;;;;;;;6.80;99.90;;;;;;5075148;28;19951;-84
2023/01/15 00:51:37;;;;;;;;;;;7.00;99.90;;;;;;5093466;28;19951;-85
2023/01/15 00:54:05;;;;;;;;;;;7.00;99.90;;;;;;5075381;28;19923;-84
2023/01/15 00:56:30;;;;;;;;;;;7.00;99.90;;;;;;5093431;28;20361;-85
2023/01/15 00:58:56;;;;;;;;;;;7.10;99.90;;;;;;5075311;28;19912;-85
2023/01/15 01:01:22;;;;;;;;;;;7.10;99.90;;;;;;5093266;28;19912;-85
2023/01/15 01:03:49;;;;;;;;;;;7.20;99.90;;;;;;5075244;28;19908;-85
2023/01/15 01:06:17;;;;;;;;;;;7.20;99.90;;;;;;5075230;28;19937;-85
2023/01/15 01:08:46;;;;;;;;;;;7.20;99.90;;;;;;5075216;28;19908;-85
2023/01/15 01:11:13;;;;;;;;;;;7.20;99.90;;;;;;5074997;28;19908;-85
2023/01/15 01:13:39;;;;;;;;;;;7.20;99.90;;;;;;5074920;28;19912;-85
2023/01/15 01:16:19;;;;;;;;;;;7.30;99.90;;;;;;5093265;28;20471;-84
2023/01/15 01:18:45;;;;;;;;;;;7.30;99.90;;;;;;5075629;28;20384;-84
2023/01/15 01:21:10;;;;;;;;;;;7.30;99.90;;;;;;5093112;28;19909;-84
2023/01/15 01:23:36;;;;;;;;;;;7.40;99.90;;;;;;5075032;28;19915;-85
2023/01/15 01:26:01;;;;;;;;;;;7.40;99.90;;;;;;5075043;28;19912;-85
2023/01/15 01:28:27;;;;;;;;;;;7.40;99.90;;;;;;5093215;28;19908;-85
2023/01/15 01:30:52;;;;;;;;;;;7.50;99.90;;;;;;5074894;28;19912;-85
2023/01/15 01:33:18;;;;;;;;;;;7.40;99.90;;;;;;5090168;22;19931;-84
2023/01/15 01:35:47;;;;;;;;;;;7.40;99.90;;;;;;5113560;28;20364;-84
2023/01/15 01:38:12;;;;;;;;;;;7.40;99.90;;;;;;5093788;28;19927;-84
2023/01/15 01:40:40;;;;;;;;;;;7.40;99.90;;;;;;5112181;28;20363;-84
2023/01/15 01:43:16;;;;;;;;;;;7.40;99.90;;;;;;5094779;28;19950;-84
2023/01/15 01:45:44;;;;;;;;;;;7.40;99.90;;;;;;5113385;28;19937;-85
2023/01/15 01:48:09;;;;;;;;;;;7.40;99.90;;;;;;5113315;28;20518;-84
2023/01/15 01:50:36;;;;;;;;;;;7.50;99.90;;;;;;5095001;28;20047;-85
2023/01/15 01:53:04;;;;;;;;;;;7.40;99.90;;;;;;5094641;28;19916;-85
2023/01/15 01:55:32;;;;;;;;;;;7.40;99.90;;;;;;5094918;28;19908;-85
2023/01/15 01:57:59;;;;;;;;;;;7.40;99.90;;;;;;5095024;28;19930;-84
2023/01/15 02:00:25;;;;;;;;;;;7.50;99.90;;;;;;5094936;28;20412;-85
2023/01/15 02:02:51;;;;;;;;;;;7.50;99.90;;;;;;5098398;28;19942;-85
2023/01/15 02:05:28;;;;;;;;;;;7.50;99.90;;;;;;5099032;28;20284;-85
2023/01/15 02:07:53;;;;;;;;;;;7.50;99.90;;;;;;5098944;28;20269;-85
2023/01/15 02:10:27;;;;;;;;;;;7.60;99.90;;;;;;5098883;28;19915;-85
2023/01/15 02:13:06;;;;;;;;;;;7.60;99.90;;;;;;5098425;28;19919;-84
2023/01/15 02:15:46;;;;;;;;;;;7.70;99.90;;;;;;5098624;28;19907;-85
2023/01/15 02:18:28;;;;;;;;;;;7.60;99.90;;;;;;5098750;28;19939;-84
2023/01/15 02:21:07;;;;;;;;;;;7.60;99.90;;;;;;5116897;28;20377;-84
2023/01/15 02:23:43;;;;;;;;;;;7.60;99.90;;;;;;5116957;28;19915;-84
2023/01/15 02:26:26;;;;;;;;;;;7.50;99.90;;;;;;5118247;28;20356;-85
2023/01/15 02:28:55;;;;;;;;;;;7.70;99.90;;;;;;5100579;28;19908;-85
2023/01/15 02:34:36;;;;;;;;;;;7.50;99.90;;;;;;5105359;28;19916;-85
2023/01/15 02:37:30;;;;;;;;;;;7.50;99.90;;;;;;5098407;28;19908;-86
2023/01/15 02:39:57;;;;;;;;;;;7.40;99.90;;;;;;5097144;28;19912;-86
2023/01/15 02:42:29;;;;;;;;;;;7.40;99.90;;;;;;5097842;28;20003;-85
2023/01/15 02:45:09;;;;;;;;;;;7.40;99.90;;;;;;5116577;28;19908;-86
2023/01/15 02:48:07;;;;;;;;;;;7.40;99.90;;;;;;5116524;28;19916;-86
2023/01/15 02:50:53;;;;;;;;;;;7.30;99.90;;;;;;5113332;28;20408;-85
2023/01/15 02:54:13;;;;;;;;;;;;;;;;;;;;;
2023/01/15 02:57:04;;;;;;;;;;;7.40;99.90;;;;;;5113828;28;20416;-85
2023/01/15 03:25:14;;;;;;;;;;;7.60;99.90;;;;;;5059722;28;19909;-86
2023/01/15 03:37:34;;;;;;;;;;;;;;;;;;;;;
2023/01/15 05:07:34;;;;;;;;;;;7.60;99.90;;;;;;5073504;28;20421;-86
2023/01/15 05:09:59;;;;;;;;;;;7.50;99.90;;;;;;5071825;28;19909;-86
2023/01/15 05:12:46;;;;;;;;;;;7.50;99.90;;;;;;5071558;28;19962;-86
2023/01/15 05:15:34;;;;;;;;;;;7.50;99.90;;;;;;5071975;28;19909;-86
2023/01/15 05:18:13;;;;;;;;;;;7.60;99.90;;;;;;5071664;28;19951;-83
2023/01/15 05:33:53;;;;;;;;;;;7.60;99.90;;;;;;5134076;22;19924;-85
2023/01/15 05:52:36;;;;;;;;;;;7.70;99.90;;;;;;5030432;28;19916;-85
2023/01/15 06:01:57;;;;;;;;;;;;;;;;;;;;;
2023/01/15 06:04:45;;;;;;;;;;;7.60;99.90;;;;;;5112628;28;19908;-85
2023/01/15 06:26:12;;;;;;;;;;;7.50;99.90;;;;;;5045226;28;19955;-86
2023/01/15 06:29:20;;;;;;;;;;;7.40;99.90;;;;;;5092714;28;19908;-86
2023/01/15 06:35:34;;;;;;;;;;;7.30;99.90;;;;;;5015773;28;20397;-85
2023/01/15 06:38:05;;;;;;;;;;;7.40;99.90;;;;;;4955384;28;19914;-84
2023/01/15 06:59:52;;;;;;;;;;;7.30;99.90;;;;;;5033643;28;20019;-86
2023/01/15 07:02:48;;;;;;;;;;;7.30;99.90;;;;;;5033627;28;19936;-85
2023/01/15 07:05:32;;;;;;;;;;;7.30;99.90;;;;;;5060236;28;20327;-85
2023/01/15 07:08:12;;;;;;;;;;;7.40;99.90;;;;;;5098047;28;19908;-84
2023/01/15 07:11:13;;;;;;;;;;;7.30;99.90;;;;;;5116609;28;19953;-84
2023/01/15 07:13:47;;;;;;;;;;;7.30;99.90;;;;;;5116041;28;19911;-86
2023/01/15 07:16:28;;;;;;;;;;;7.30;99.90;;;;;;5116319;28;19912;-85
2023/01/15 07:18:54;;;;;;;;;;;7.20;99.90;;;;;;5098489;28;19908;-84
2023/01/15 07:21:46;;;;;;;;;;;7.20;99.90;;;;;;5097553;28;19955;-86
2023/01/15 07:24:12;;;;;;;;;;;7.20;99.90;;;;;;5094228;28;19947;-84
2023/01/15 07:26:51;;;;;;;;;;;7.30;99.90;;;;;;5098214;28;20380;-84
2023/01/15 07:29:35;;;;;;;;;;;7.30;99.90;;;;;;5097542;28;19908;-85
2023/01/15 07:32:42;;;;;;;;;;;7.30;99.90;;;;;;5097158;28;20452;-85
2023/01/15 07:35:30;;;;;;;;;;;7.30;99.90;;;;;;5133201;22;19924;-85
2023/01/15 07:37:59;;;;;;;;;;;7.30;99.90;;;;;;5094854;28;19908;-85
2023/01/15 07:40:41;;;;;;;;;;;7.30;99.90;;;;;;5097524;28;19908;-86
2023/01/15 07:58:02;;;;;;;;;;;7.20;99.90;;;;;;5093176;28;19931;-85
2023/01/15 08:00:50;;;;;;;;;;;7.20;99.90;;;;;;5076425;28;19908;-86
2023/01/15 08:15:54;;;;;;;;;;;7.00;99.90;;;;;;5116020;22;19974;-84
2023/01/15 08:28:15;;;;;;;;;;;;;;;;;;;;;
2023/01/15 08:34:25;;;;;;;;;;;;;;;;;;;;;
2023/01/15 08:37:49;;;;;;;;;;;6.30;99.90;;;;;;5012425;28;20402;-85
2023/01/15 09:37:01;;;;;;;;;;;6.30;99.90;;;;;;4972225;28;19933;-86
2023/01/15 09:43:00;;;;;;;;;;;6.60;99.90;;;;;;4934180;29;20275;-86
2023/01/15 09:55:20;;;;;;;;;;;;;;;;;;;;;
2023/01/15 09:57:56;;;;;;;;;;;7.30;99.90;;;;;;4933125;29;19921;-84
2023/01/15 10:00:29;;;;;;;;;;;7.40;99.90;;;;;;4913533;29;19915;-85
2023/01/15 10:03:27;;;;;;;;;;;7.40;99.90;;;;;;4914142;29;19965;-85
2023/01/15 10:06:14;;;;;;;;;;;7.50;99.90;;;;;;4929758;29;19927;-85
2023/01/15 10:09:06;;;;;;;;;;;7.40;99.90;;;;;;4932570;29;19970;-85
2023/01/15 10:14:37;;;;;;;;;;;7.60;99.90;;;;;;5069890;28;19919;-85
2023/01/15 10:17:04;;;;;;;;;;;7.90;99.90;;;;;;5066326;28;20362;-84
2023/01/15 10:19:30;;;;;;;;;;;8.00;99.90;;;;;;5082663;28;20436;-83
2023/01/15 10:21:58;;;;;;;;;;;8.00;99.90;;;;;;5072406;28;19952;-84
2023/01/15 10:24:24;;;;;;;;;;;8.20;99.90;;;;;;5076723;28;19909;-84
2023/01/15 10:26:54;;;;;;;;;;;8.40;99.90;;;;;;5075617;28;19930;-85
2023/01/15 10:29:25;;;;;;;;;;;8.50;99.90;;;;;;5075531;28;19912;-84
2023/01/15 10:31:52;;;;;;;;;;;8.40;99.90;;;;;;5075429;28;19908;-83
2023/01/15 10:34:24;;;;;;;;;;;8.40;99.90;;;;;;5073840;28;19919;-83
2023/01/15 10:37:08;;;;;;;;;;;8.40;99.90;;;;;;5066830;28;19966;-84
2023/01/15 10:39:48;;;;;;;;;;;8.40;99.90;;;;;;5071908;28;19909;-82
2023/01/15 10:42:32;;;;;;;;;;;8.50;99.90;;;;;;5075165;28;20258;-83
2023/01/15 10:45:14;;;;;;;;;;;8.50;99.90;;;;;;5075259;28;20407;-83
2023/01/15 10:47:40;;;;;;;;;;;8.60;99.90;;;;;;5075869;28;19908;-82
2023/01/15 10:50:15;;;;;;;;;;;8.80;99.90;;;;;;5074965;28;20389;-83
2023/01/15 10:52:42;;;;;;;;;;;8.70;99.90;;;;;;5074641;28;19960;-82
2023/01/15 10:55:37;;;;;;;;;;;8.80;99.90;;;;;;5074719;28;20392;-82
2023/01/15 10:58:12;;;;;;;;;;;8.80;99.90;;;;;;5057940;28;19991;-82
2023/01/15 11:00:38;;;;;;;;;;;8.80;99.90;;;;;;5074846;28;19916;-82
2023/01/15 11:03:13;;;;;;;;;;;8.70;99.90;;;;;;5074336;28;20430;-82
2023/01/15 11:05:39;;;;;;;;;;;8.80;99.90;;;;;;5074882;28;19909;-80
2023/01/15 11:08:06;;;;;;;;;;;8.80;99.90;;;;;;5074464;28;19975;-80
2023/01/15 11:10:32;;;;;;;;;;;8.90;99.90;;;;;;5072638;28;19912;-81
2023/01/15 11:21:29;;;;;;;;;;;9.30;99.90;;;;;;5056575;28;19959;-84
2023/01/15 11:23:56;;;;;;;;;;;9.50;99.90;;;;;;5055810;28;20362;-83
2023/01/15 11:26:23;;;;;;;;;;;9.80;99.90;;;;;;5055319;28;19940;-84
2023/01/15 11:28:49;;;;;;;;;;;10.10;99.90;;;;;;5054891;28;19964;-86
2023/01/15 11:31:15;;;;;;;;;;;10.50;99.90;;;;;;5053543;28;19976;-85
2023/01/15 11:33:55;;;;;;;;;;;10.50;99.90;;;;;;5055289;28;19959;-85
2023/01/15 11:36:22;;;;;;;;;;;10.80;99.90;;;;;;5054059;28;19909;-85
2023/01/15 11:38:49;;;;;;;;;;;10.70;99.90;;;;;;5070364;28;19991;-86
2023/01/15 11:41:18;;;;;;;;;;;11.10;99.90;;;;;;5053295;28;19909;-85
2023/01/15 11:52:08;;;;;;;;;;;10.40;99.90;;;;;;5055306;28;20057;-85
2023/01/15 11:54:42;;;;;;;;;;;10.30;99.90;;;;;;5053170;28;19919;-86
2023/01/15 11:57:08;;;;;;;;;;;10.00;99.90;;;;;;5054506;28;19909;-86
2023/01/15 11:59:34;;;;;;;;;;;10.00;99.90;;;;;;5054773;28;19909;-84
2023/01/15 12:02:04;;;;;;;;;;;10.80;99.90;;;;;;5069512;28;19913;-86
2023/01/15 12:04:33;;;;;;;;;;;12.10;99.90;;;;;;5053014;28;20358;-85
2023/01/15 12:06:59;;;;;;;;;;;12.20;99.90;;;;;;5052972;28;19912;-85
2023/01/15 12:09:28;;;;;;;;;;;12.10;99.90;;;;;;5069767;28;19909;-86
2023/01/15 12:12:17;;;;;;;;;;;12.50;99.90;;;;;;5069308;28;19909;-85
2023/01/15 12:14:55;;;;;;;;;;;13.40;99.90;;;;;;5054691;28;19913;-85
2023/01/15 12:17:20;;;;;;;;;;;13.80;99.90;;;;;;5054228;28;19923;-85
2023/01/15 12:19:52;;;;;;;;;;;14.80;99.90;;;;;;5069269;28;19999;-85
2023/01/15 12:22:29;;;;;;;;;;;15.40;99.90;;;;;;5069200;28;19909;-85
2023/01/15 12:25:03;;;;;;;;;;;15.60;97.30;;;;;;5052564;28;20278;-86
2023/01/15 12:27:38;;;;;;;;;;;14.90;96.00;;;;;;5070462;28;19960;-86
2023/01/15 12:30:13;;;;;;;;;;;13.60;98.50;;;;;;5053825;28;19908;-85
2023/01/15 12:32:59;;;;;;;;;;;13.10;99.90;;;;;;5052926;28;20016;-86
2023/01/15 12:35:24;;;;;;;;;;;12.60;99.90;;;;;;5022702;28;19960;-86
2023/01/15 12:37:52;;;;;;;;;;;12.80;99.90;;;;;;5054965;28;19953;-85
2023/01/15 12:40:18;;;;;;;;;;;13.40;99.90;;;;;;5053251;28;19916;-85
2023/01/15 12:45:36;;;;;;;;;;;16.00;98.00;;;;;;5053660;28;19963;-86
2023/01/15 12:48:15;;;;;;;;;;;17.50;93.30;;;;;;5052555;28;19909;-86
2023/01/15 12:50:44;;;;;;;;;;;17.30;91.20;;;;;;5052204;28;19909;-86
2023/01/15 12:53:16;;;;;;;;;;;16.50;90.70;;;;;;5051736;28;20004;-86
2023/01/15 12:55:55;;;;;;;;;;;15.10;90.60;;;;;;5068828;28;19909;-85
2023/01/15 12:58:29;;;;;;;;;;;13.80;95.90;;;;;;5052364;28;19909;-84
2023/01/15 13:01:02;;;;;;;;;;;13.90;96.70;;;;;;5068752;28;19909;-86
2023/01/15 13:03:44;;;;;;;;;;;13.70;96.40;;;;;;5068578;28;19958;-86
2023/01/15 13:06:19;;;;;;;;;;;12.80;99.10;;;;;;5051931;28;19909;-86
2023/01/15 13:08:44;;;;;;;;;;;12.00;99.90;;;;;;5052167;28;19908;-85
2023/01/15 13:11:11;;;;;;;;;;;11.10;99.90;;;;;;5068319;28;20289;-85
2023/01/15 13:13:38;;;;;;;;;;;12.00;99.90;;;;;;5051724;28;19916;-85
2023/01/15 13:16:24;;;;;;;;;;;13.10;99.90;;;;;;5052715;28;20381;-86
2023/01/15 13:19:08;;;;;;;;;;;14.40;99.90;;;;;;5052048;28;19916;-85
2023/01/15 13:21:35;;;;;;;;;;;14.40;96.70;;;;;;5068147;28;19909;-86
2023/01/15 13:24:19;;;;;;;;;;;14.70;95.80;;;;;;5052825;28;19909;-85
2023/01/15 13:27:00;;;;;;;;;;;14.90;94.30;;;;;;5068290;28;19909;-86
2023/01/15 13:29:35;;;;;;;;;;;14.80;93.30;;;;;;5068127;28;19932;-87
2023/01/15 13:32:10;;;;;;;;;;;14.50;94.50;;;;;;5067988;28;19909;-85
2023/01/15 13:59:44;;;;;;;;;;;10.30;99.90;;;;;;4995223;28;19921;-87
2023/01/15 14:02:38;;;;;;;;;;;9.80;99.90;;;;;;4979046;28;19953;-86
2023/01/15 14:27:53;;;;;;;;;;;;;;;;;;;;;
2023/01/15 14:30:38;;;;;;;;;;;9.10;99.90;;;;;;5056255;28;19909;-87
2023/01/15 14:33:27;;;;;;;;;;;9.20;99.90;;;;;;5054624;28;19913;-88
2023/01/15 14:36:15;;;;;;;;;;;9.20;99.90;;;;;;5025914;28;19964;-88
2023/01/15 14:39:07;;;;;;;;;;;9.00;99.90;;;;;;5032753;28;20000;-88
2023/01/15 14:43:00;;;;;;;;;;;9.10;99.90;;;;;;5076517;22;19993;-87
2023/01/15 14:44:31;;;;;;;;;;;9.00;99.90;;;;;;5055749;28;19916;-87
2023/01/15 14:46:58;;;;;;;;;;;8.90;99.90;;;;;;5054517;28;19909;-88
2023/01/15 14:49:30;;;;;;;;;;;8.90;99.90;;;;;;5054432;28;19908;-88
2023/01/15 14:51:56;;;;;;;;;;;8.90;99.90;;;;;;5034255;28;19909;-88
2023/01/15 14:54:23;;;;;;;;;;;8.80;99.90;;;;;;5034391;28;19917;-87
2023/01/15 14:56:51;;;;;;;;;;;8.80;99.90;;;;;;5034341;28;19913;-88
2023/01/15 14:59:24;;;;;;;;;;;8.90;99.90;;;;;;5035791;28;19909;-87
2023/01/15 15:01:50;;;;;;;;;;;8.90;99.90;;;;;;5033727;28;19910;-87
2023/01/15 15:04:22;;;;;;;;;;;8.90;99.90;;;;;;5034242;28;19916;-90
2023/01/15 15:06:51;;;;;;;;;;;9.00;99.90;;;;;;5034279;28;19909;-88
2023/01/15 15:09:28;;;;;;;;;;;8.80;99.90;;;;;;5033915;28;19955;-87
2023/01/15 15:14:41;;;;;;;;;;;8.90;99.90;;;;;;5033199;28;20277;-89
2023/01/15 15:17:15;;;;;;;;;;;8.80;99.90;;;;;;5033836;28;19909;-88
2023/01/15 15:19:44;;;;;;;;;;;8.60;99.90;;;;;;5033792;28;19913;-88
2023/01/15 15:22:13;;;;;;;;;;;8.60;99.90;;;;;;5033774;28;19916;-87
2023/01/15 15:24:44;;;;;;;;;;;8.60;99.90;;;;;;5033939;28;19913;-87
2023/01/15 15:27:20;;;;;;;;;;;8.50;99.90;;;;;;5020643;28;20351;-87
2023/01/15 15:29:45;;;;;;;;;;;8.40;99.90;;;;;;5030380;28;20021;-87
2023/01/15 15:32:16;;;;;;;;;;;8.40;99.90;;;;;;5030232;28;20374;-87
2023/01/15 15:34:45;;;;;;;;;;;8.40;99.90;;;;;;5043165;28;19913;-88
2023/01/15 15:37:17;;;;;;;;;;;8.40;99.90;;;;;;5032023;28;19913;-89
2023/01/15 15:40:01;;;;;;;;;;;8.40;99.90;;;;;;5024072;28;20048;-89
2023/01/15 15:50:53;;;;;;;;;;;8.40;99.90;;;;;;5015743;28;20365;-91
2023/01/15 15:53:19;;;;;;;;;;;8.20;99.90;;;;;;5013849;28;19913;-87
2023/01/15 15:55:45;;;;;;;;;;;8.20;99.90;;;;;;4997448;28;19917;-89
2023/01/15 15:58:18;;;;;;;;;;;8.10;99.90;;;;;;5015331;28;19909;-90
2023/01/15 16:04:26;;;;;;;;;;;8.10;99.90;;;;;;4934771;28;20299;-89
2023/01/15 16:07:20;;;;;;;;;;;8.00;99.90;;;;;;4956791;28;19910;-88
2023/01/15 16:09:59;;;;;;;;;;;8.00;99.90;;;;;;4960356;28;19918;-86
2023/01/15 16:16:09;;;;;;;;;;;;;;;;;;;;;
2023/01/15 16:18:54;;;;;;;;;;;8.10;99.90;;;;;;5007499;28;20321;-85
2023/01/15 16:25:11;;;;;;;;;;;;;;;;;;;;;
2023/01/15 16:30:39;;;;;;;;;;;8.20;99.90;;;;;;4953821;29;19917;-88
2023/01/15 16:40:16;;;;;;;;;;;8.30;99.90;;;;;;4953484;29;19914;-88
2023/01/15 16:43:15;;;;;;;;;;;8.30;99.90;;;;;;4914700;29;20372;-88
2023/01/15 16:51:52;;;;;;;;;;;8.30;99.90;;;;;;4999460;28;19916;-89
2023/01/15 16:58:06;;;;;;;;;;;8.40;99.90;;;;;;4953223;29;19932;-87
2023/01/15 17:26:48;;;;;;;;;;;8.40;99.90;;;;;;5073389;28;19919;-87
2023/01/15 17:29:33;;;;;;;;;;;8.00;99.90;;;;;;5072103;28;20396;-90
2023/01/15 17:32:30;;;;;;;;;;;;;;;;;;;;;
2023/01/15 17:37:53;;;;;;;;;;;6.90;99.90;;;;;;5030627;28;19917;-92
2023/01/15 17:40:19;;;;;;;;;;;6.70;99.90;;;;;;5101895;22;20339;-92
2023/01/15 17:46:14;;;;;;;;;;;6.50;99.90;;;;;;5010784;28;19909;-91
2023/01/15 18:51:11;;;;;;;;;;;7.20;99.90;;;;;;5073829;28;19924;-88
2023/01/15 18:53:36;;;;;;;;;;;7.20;99.90;;;;;;5074697;28;20083;-89
2023/01/15 18:56:02;;;;;;;;;;;7.10;99.90;;;;;;5074768;28;19913;-89
2023/01/15 18:58:28;;;;;;;;;;;7.10;99.90;;;;;;5074731;28;19908;-89
2023/01/15 19:00:53;;;;;;;;;;;7.10;99.90;;;;;;5074336;28;19915;-88
2023/01/15 20:46:46;;;;;;;;;;;7.50;99.90;;;;;;5054936;28;19958;-88
2023/01/15 20:49:26;;;;;;;;;;;7.50;99.90;;;;;;5036698;28;20309;-88
2023/01/15 20:51:51;;;;;;;;;;;7.50;99.90;;;;;;5036562;28;19952;-88
2023/01/15 20:54:17;;;;;;;;;;;7.60;99.90;;;;;;5036336;28;20025;-88
2023/01/15 20:56:43;;;;;;;;;;;7.70;99.90;;;;;;5036180;28;19916;-88
2023/01/15 20:59:08;;;;;;;;;;;7.60;99.90;;;;;;5036295;28;19917;-88
2023/01/15 21:01:34;;;;;;;;;;;7.60;99.90;;;;;;5036373;28;20285;-88
2023/01/15 21:03:59;;;;;;;;;;;7.60;99.90;;;;;;5036161;28;20366;-88
2023/01/15 21:06:25;;;;;;;;;;;7.60;99.90;;;;;;5035849;28;19959;-88
2023/01/15 21:08:50;;;;;;;;;;;7.60;99.90;;;;;;5036296;28;19924;-89
2023/01/15 21:11:16;;;;;;;;;;;7.60;99.90;;;;;;5035856;28;19996;-88
2023/01/15 21:13:43;;;;;;;;;;;7.60;99.90;;;;;;5036097;28;20016;-88
2023/01/15 21:16:10;;;;;;;;;;;7.40;99.90;;;;;;5035989;28;19913;-88
2023/01/15 21:18:36;;;;;;;;;;;7.30;99.90;;;;;;5035932;28;19999;-88
2023/01/15 21:21:12;;;;;;;;;;;7.20;99.90;;;;;;5035922;28;20341;-87
2023/01/15 21:23:39;;;;;;;;;;;7.20;99.90;;;;;;5039754;28;20008;-86
2023/01/15 21:26:05;;;;;;;;;;;7.00;99.90;;;;;;5039874;28;19959;-87
2023/01/15 21:28:30;;;;;;;;;;;6.90;99.90;;;;;;5040033;28;19916;-87
2023/01/15 21:30:56;;;;;;;;;;;6.80;99.90;;;;;;5038188;28;19909;-87
2023/01/15 21:33:22;;;;;;;;;;;6.70;99.90;;;;;;5041381;28;20374;-87
2023/01/15 21:35:48;;;;;;;;;;;6.70;99.90;;;;;;5042805;28;19971;-86
2023/01/15 21:38:14;;;;;;;;;;;6.70;99.90;;;;;;5025181;28;19917;-87
2023/01/15 21:40:39;;;;;;;;;;;6.60;99.90;;;;;;5042147;28;19959;-86
2023/01/15 21:45:50;;;;;;;;;;;6.50;99.90;;;;;;5059971;28;20393;-87
2023/01/15 21:48:18;;;;;;;;;;;6.40;99.90;;;;;;5039939;28;19909;-86
2023/01/15 21:50:44;;;;;;;;;;;6.50;99.90;;;;;;5036078;28;19916;-86
2023/01/15 21:53:10;;;;;;;;;;;6.50;99.90;;;;;;5036226;28;19913;-84
2023/01/15 21:55:35;;;;;;;;;;;6.50;99.90;;;;;;5035591;28;19909;-87
2023/01/15 21:58:01;;;;;;;;;;;6.50;99.90;;;;;;5035362;28;19909;-86
2023/01/15 22:00:26;;;;;;;;;;;6.60;99.90;;;;;;5035365;28;20066;-88
2023/01/15 22:02:54;;;;;;;;;;;6.60;99.90;;;;;;5035622;28;20380;-87
2023/01/15 22:05:20;;;;;;;;;;;6.60;99.90;;;;;;5035833;28;19909;-87
2023/01/15 22:07:47;;;;;;;;;;;6.50;99.90;;;;;;5036285;28;19909;-87
2023/01/15 22:10:13;;;;;;;;;;;6.50;99.90;;;;;;5035174;28;19960;-87
2023/01/15 22:12:41;;;;;;;;;;;6.50;99.90;;;;;;5018725;28;20297;-87
2023/01/15 22:15:11;;;;;;;;;;;6.40;99.90;;;;;;5035142;28;19963;-87
2023/01/15 22:17:36;;;;;;;;;;;6.40;99.90;;;;;;5035099;28;19931;-87
2023/01/15 22:20:02;;;;;;;;;;;6.40;99.90;;;;;;5038993;28;20394;-87
2023/01/15 22:22:32;;;;;;;;;;;6.30;99.90;;;;;;5038494;28;19916;-87
2023/01/15 22:24:58;;;;;;;;;;;6.30;99.90;;;;;;5038806;28;19913;-87
2023/01/15 22:27:25;;;;;;;;;;;6.20;99.90;;;;;;5038862;28;19908;-87
2023/01/15 22:29:50;;;;;;;;;;;6.20;99.90;;;;;;5057014;28;19913;-87
2023/01/15 22:32:16;;;;;;;;;;;6.20;99.90;;;;;;5039184;28;20009;-87
2023/01/15 22:34:42;;;;;;;;;;;6.20;99.90;;;;;;5039341;28;19913;-87
2023/01/15 22:37:09;;;;;;;;;;;6.20;99.90;;;;;;5038845;28;19909;-88
2023/01/15 22:39:34;;;;;;;;;;;6.30;99.90;;;;;;5038971;28;19909;-87
2023/01/15 22:44:44;;;;;;;;;;;6.40;99.90;;;;;;5058157;28;20316;-88
2023/01/15 22:47:10;;;;;;;;;;;6.40;99.90;;;;;;5038965;28;19953;-87
2023/01/15 22:49:35;;;;;;;;;;;6.40;99.90;;;;;;5038673;28;19909;-87
2023/01/15 22:52:01;;;;;;;;;;;6.50;99.90;;;;;;5038680;28;19909;-88
2023/01/15 22:54:27;;;;;;;;;;;6.50;99.90;;;;;;5038381;28;19963;-87
2023/01/15 22:56:53;;;;;;;;;;;6.60;99.90;;;;;;5038667;28;19909;-87
2023/01/15 22:59:18;;;;;;;;;;;6.60;99.90;;;;;;5038318;28;20417;-87
2023/01/15 23:01:44;;;;;;;;;;;6.70;99.90;;;;;;5037939;28;19920;-88
2023/01/15 23:04:14;;;;;;;;;;;6.70;99.90;;;;;;5038389;28;19908;-88
2023/01/15 23:06:40;;;;;;;;;;;6.70;99.90;;;;;;5021590;28;20008;-88
2023/01/15 23:09:05;;;;;;;;;;;6.70;99.90;;;;;;5038126;28;19955;-88
2023/01/15 23:11:31;;;;;;;;;;;6.70;99.90;;;;;;5037953;28;19909;-88
2023/01/15 23:13:57;;;;;;;;;;;6.70;99.90;;;;;;5037854;28;19959;-88
2023/01/15 23:16:22;;;;;;;;;;;6.80;99.90;;;;;;5037851;28;19944;-88
2023/01/15 23:18:48;;;;;;;;;;;6.90;99.90;;;;;;5037878;28;19916;-88
2023/01/15 23:21:19;;;;;;;;;;;6.90;99.90;;;;;;5055583;28;19916;-87
2023/01/15 23:23:45;;;;;;;;;;;6.90;99.90;;;;;;5056356;28;20262;-87
2023/01/15 23:26:14;;;;;;;;;;;6.70;99.90;;;;;;5056098;28;20255;-87
2023/01/15 23:28:40;;;;;;;;;;;6.70;99.90;;;;;;5055296;28;19912;-86
2023/01/15 23:31:06;;;;;;;;;;;6.70;99.90;;;;;;5038043;28;19987;-87
2023/01/15 23:33:32;;;;;;;;;;;6.60;99.90;;;;;;5038101;28;20020;-87
2023/01/15 23:35:58;;;;;;;;;;;6.60;99.90;;;;;;5055622;28;19913;-87
2023/01/15 23:38:24;;;;;;;;;;;6.60;99.90;;;;;;5037527;28;19912;-86
2023/01/15 23:40:49;;;;;;;;;;;6.60;99.90;;;;;;5037153;28;19919;-87
2023/01/15 23:48:45;;;;;;;;;;;6.50;99.90;;;;;;5055481;28;19908;-87
2023/01/15 23:51:11;;;;;;;;;;;6.50;99.90;;;;;;5037003;28;19915;-87
2023/01/15 23:53:36;;;;;;;;;;;6.50;99.90;;;;;;5055023;28;19920;-87
2023/01/15 23:56:03;;;;;;;;;;;6.50;99.90;;;;;;5055067;28;20424;-87
2023/01/15 23:58:28;;;;;;;;;;;6.50;99.90;;;;;;5054922;28;19913;-87
